Time;durP1;ratioP1;P1;durP2;ratioP2;P2;SDS_P1;SDS_P2;PMS_P1;PMS_P2;Temp;Humidity;BMP_temperature;BMP_pressure;BME280_temperature;BME280_humidity;BME280_pressure;Samples;Min_cycle;Max_cycle;Signal;HPM_P1;HPM_P2
2024/01/13 00:01:01;;;;;;;11.60;10.13;;;;;;;-3.02;100.00;96370.41;4337493;32;20272;-68
2024/01/13 00:03:27;;;;;;;12.63;11.27;;;;;;;-3.17;100.00;96375.63;4340999;32;20215;-68
2024/01/13 00:05:52;;;;;;;11.70;9.83;;;;;;;-3.15;100.00;96376.25;4368659;32;20241;-68
2024/01/13 00:08:19;;;;;;;9.03;8.20;;;;;;;-3.32;100.00;96369.66;4370116;32;20193;-68
2024/01/13 00:10:44;;;;;;;10.75;9.85;;;;;;;-3.27;100.00;96360.34;4372544;32;20196;-68
2024/01/13 00:13:10;;;;;;;18.57;12.60;;;;;;;-3.33;100.00;96371.47;4351351;32;20201;-68
2024/01/13 00:15:36;;;;;;;9.53;8.70;;;;;;;-3.19;100.00;96368.03;4336900;32;20239;-68
2024/01/13 00:18:01;;;;;;;16.07;13.43;;;;;;;-3.10;100.00;96363.53;4351328;32;20245;-68
2024/01/13 00:20:26;;;;;;;9.13;8.33;;;;;;;-3.14;100.00;96363.13;4351217;32;20336;-68
2024/01/13 00:22:52;;;;;;;10.13;9.23;;;;;;;-2.94;100.00;96355.56;4323461;32;20216;-68
2024/01/13 00:25:17;;;;;;;12.57;8.53;;;;;;;-3.00;100.00;96364.06;4351449;32;20230;-68
2024/01/13 00:27:43;;;;;;;10.27;9.00;;;;;;;-2.99;100.00;96370.06;4381137;32;20197;-68
2024/01/13 00:30:10;;;;;;;9.97;9.13;;;;;;;-2.92;100.00;96356.19;4316137;32;20255;-68
2024/01/13 00:32:35;;;;;;;18.05;11.07;;;;;;;-3.08;100.00;96361.56;4344999;32;20203;-68
2024/01/13 00:35:00;;;;;;;12.13;10.70;;;;;;;-2.82;100.00;96350.66;4365182;32;20201;-68
2024/01/13 00:37:27;;;;;;;12.93;10.73;;;;;;;-2.83;100.00;96365.44;4345287;32;20216;-68
2024/01/13 00:39:54;;;;;;;14.38;12.68;;;;;;;-3.04;100.00;96346.44;4355235;32;20204;-68
2024/01/13 00:42:20;;;;;;;13.55;11.80;;;;;;;-2.83;100.00;96349.87;4324773;32;20237;-68
2024/01/13 00:44:47;;;;;;;11.18;10.07;;;;;;;-2.73;100.00;96348.78;4345771;32;20301;-68
2024/01/13 00:47:13;;;;;;;14.90;11.25;;;;;;;-2.98;100.00;96343.94;4347193;32;20211;-68
2024/01/13 00:49:41;;;;;;;11.05;10.07;;;;;;;-2.91;100.00;96351.78;4353455;32;20213;-68
2024/01/13 00:52:09;;;;;;;11.60;8.07;;;;;;;-2.98;100.00;96346.50;4333210;32;20275;-69
2024/01/13 00:54:34;;;;;;;9.18;7.97;;;;;;;-3.22;100.00;96341.66;4366022;32;20233;-68
2024/01/13 00:57:01;;;;;;;10.27;7.77;;;;;;;-3.31;100.00;96353.09;4332360;32;20205;-68
2024/01/13 00:59:26;;;;;;;10.75;8.27;;;;;;;-3.23;100.00;96347.81;4364101;32;20192;-68
2024/01/13 01:01:53;;;;;;;8.63;7.27;;;;;;;-3.32;100.00;96338.53;4372444;32;20215;-69
2024/01/13 01:04:18;;;;;;;7.37;5.75;;;;;;;-3.19;100.00;96334.31;4379199;32;20196;-68
2024/01/13 01:06:47;;;;;;;7.90;6.40;;;;;;;-2.83;100.00;96329.09;4375246;32;20197;-68
2024/01/13 01:09:16;;;;;;;7.07;5.50;;;;;;;-3.25;100.00;96337.63;4374854;32;20226;-68
2024/01/13 01:11:42;;;;;;;6.93;6.22;;;;;;;-3.42;100.00;96338.00;4377742;32;20241;-68
2024/01/13 01:14:08;;;;;;;5.30;4.78;;;;;;;-3.45;100.00;96349.53;4371695;32;20247;-68
2024/01/13 01:16:34;;;;;;;4.50;4.25;;;;;;;-3.41;100.00;96339.62;4358139;32;20204;-68
2024/01/13 01:19:00;;;;;;;4.80;4.40;;;;;;;-3.50;100.00;96347.47;4327629;32;20320;-68
2024/01/13 01:21:26;;;;;;;7.57;6.50;;;;;;;-3.53;100.00;96342.66;4360292;32;20196;-68
2024/01/13 01:23:53;;;;;;;7.27;4.57;;;;;;;-3.86;100.00;96347.41;4333630;32;20220;-68
2024/01/13 01:26:18;;;;;;;4.97;4.60;;;;;;;-3.62;100.00;96333.38;4346686;32;20205;-68
2024/01/13 01:28:45;;;;;;;9.40;6.07;;;;;;;-3.53;100.00;96336.66;4336955;32;20271;-68
2024/01/13 01:31:12;;;;;;;6.07;5.55;;;;;;;-3.61;100.00;96339.38;4344842;32;20189;-68
2024/01/13 01:33:39;;;;;;;6.32;4.25;;;;;;;-3.62;100.00;96345.53;4319384;32;20189;-68
2024/01/13 01:36:05;;;;;;;6.10;5.60;;;;;;;-3.46;100.00;96343.56;4346915;32;20262;-68
2024/01/13 01:38:31;;;;;;;6.40;5.90;;;;;;;-3.31;100.00;96335.75;4369297;32;20228;-68
2024/01/13 01:40:58;;;;;;;6.03;5.40;;;;;;;-3.26;100.00;96335.22;4345177;32;20226;-66
2024/01/13 01:43:23;;;;;;;5.25;4.85;;;;;;;-3.25;100.00;96342.81;4367688;32;20193;-68
2024/01/13 01:45:54;;;;;;;5.60;5.10;;;;;;;-3.20;100.00;96337.88;4346377;32;20276;-68
2024/01/13 01:48:28;;;;;;;7.45;6.72;;;;;;;-3.40;100.00;96341.22;4325972;32;20200;-68
2024/01/13 01:50:54;;;;;;;6.35;5.68;;;;;;;-3.26;100.00;96327.44;4359100;32;20275;-68
2024/01/13 01:53:20;;;;;;;4.30;3.97;;;;;;;-3.26;100.00;96328.22;4356747;32;20181;-68
2024/01/13 01:55:47;;;;;;;10.00;6.70;;;;;;;-3.14;100.00;96326.00;4346603;32;20247;-68
2024/01/13 01:58:13;;;;;;;7.97;6.55;;;;;;;-3.00;100.00;96322.53;4362811;32;20243;-68
2024/01/13 02:00:39;;;;;;;5.10;4.80;;;;;;;-2.82;100.00;96325.50;4368250;32;20217;-68
2024/01/13 02:03:05;;;;;;;6.62;6.20;;;;;;;-3.08;100.00;96314.06;4347475;32;20208;-67
2024/01/13 02:05:32;;;;;;;12.03;7.67;;;;;;;-3.15;100.00;96314.81;4354449;32;20185;-68
2024/01/13 02:07:59;;;;;;;9.82;7.05;;;;;;;-3.30;100.00;96310.63;4351310;32;20239;-68
2024/01/13 02:10:25;;;;;;;7.12;6.57;;;;;;;-3.26;100.00;96304.09;4358841;32;20193;-68
2024/01/13 02:12:51;;;;;;;12.63;6.25;;;;;;;-3.15;100.00;96298.44;4369547;32;20197;-68
2024/01/13 02:15:16;;;;;;;9.33;7.73;;;;;;;-3.25;100.00;96292.72;4359093;32;20319;-68
2024/01/13 02:17:43;;;;;;;6.50;5.63;;;;;;;-3.23;100.00;96296.75;4339889;32;20204;-68
2024/01/13 02:20:12;;;;;;;8.15;7.45;;;;;;;-2.88;100.00;96284.72;4346849;32;20193;-68
2024/01/13 02:22:37;;;;;;;7.07;6.47;;;;;;;-3.18;100.00;96289.22;4369696;32;20217;-68
2024/01/13 02:25:06;;;;;;;7.30;6.23;;;;;;;-2.93;100.00;96289.69;4349247;32;20267;-68
2024/01/13 02:27:33;;;;;;;10.23;9.18;;;;;;;-2.72;100.00;96290.66;4355527;32;20225;-67
2024/01/13 02:30:04;;;;;;;7.95;7.35;;;;;;;-2.68;100.00;96287.50;4379570;32;20241;-60
2024/01/13 02:32:29;;;;;;;14.23;10.48;;;;;;;-2.62;100.00;96289.34;4341681;32;20181;-59
2024/01/13 02:34:54;;;;;;;9.87;9.00;;;;;;;-2.72;100.00;96270.72;4358380;32;20265;-60
2024/01/13 02:37:21;;;;;;;9.13;8.47;;;;;;;-2.63;100.00;96274.75;4319341;32;21008;-60
2024/01/13 02:39:49;;;;;;;9.30;7.72;;;;;;;-2.63;100.00;96271.38;4349992;32;20267;-60
2024/01/13 02:42:14;;;;;;;7.37;6.78;;;;;;;-2.37;100.00;96266.37;4369012;32;20193;-60
2024/01/13 02:44:41;;;;;;;12.17;8.30;;;;;;;-2.28;100.00;96265.22;4368725;32;20250;-60
2024/01/13 02:47:07;;;;;;;7.40;6.80;;;;;;;-2.26;100.00;96273.63;4374675;32;20244;-60
2024/01/13 02:49:33;;;;;;;11.95;8.32;;;;;;;-2.62;100.00;96271.19;4362589;32;20259;-60
2024/01/13 02:51:59;;;;;;;10.03;8.97;;;;;;;-2.59;100.00;96270.00;4348168;32;20197;-60
2024/01/13 02:54:25;;;;;;;22.67;11.60;;;;;;;-2.42;100.00;96263.53;4355327;32;20253;-60
2024/01/13 02:56:50;;;;;;;13.60;9.77;;;;;;;-2.45;100.00;96254.31;4351839;32;20235;-60
2024/01/13 02:59:16;;;;;;;6.20;5.67;;;;;;;-2.88;100.00;96253.56;4374452;32;20295;-59
2024/01/13 03:01:43;;;;;;;8.07;7.40;;;;;;;-2.48;100.00;96246.91;4355096;32;20211;-59
2024/01/13 03:04:09;;;;;;;8.68;7.97;;;;;;;-2.53;100.00;96249.28;4357579;32;20208;-60
2024/01/13 03:06:34;;;;;;;7.68;7.00;;;;;;;-2.54;100.00;96239.09;4343827;32;20209;-60
2024/01/13 03:09:00;;;;;;;13.10;8.97;;;;;;;-2.55;100.00;96245.28;4335937;32;20208;-59
2024/01/13 03:11:26;;;;;;;9.23;8.13;;;;;;;-2.89;100.00;96241.59;4338331;32;20185;-57
2024/01/13 03:13:53;;;;;;;9.77;8.98;;;;;;;-2.70;100.00;96234.19;4357382;32;20220;-58
2024/01/13 03:16:19;;;;;;;9.68;8.93;;;;;;;-2.70;100.00;96228.97;4372840;32;20232;-58
2024/01/13 03:18:44;;;;;;;8.33;7.57;;;;;;;-2.43;100.00;96221.19;4380603;32;20192;-57
2024/01/13 03:21:12;;;;;;;10.93;8.30;;;;;;;-2.32;100.00;96222.47;4377454;32;20192;-58
2024/01/13 03:23:43;;;;;;;8.82;6.80;;;;;;;-2.52;100.00;96229.31;4351847;32;20237;-58
2024/01/13 03:26:09;;;;;;;8.00;7.37;;;;;;;-2.26;100.00;96226.88;4351378;32;20196;-58
2024/01/13 03:28:35;;;;;;;9.88;8.30;;;;;;;-2.73;100.00;96221.56;4357141;32;20219;-57
2024/01/13 03:31:02;;;;;;;9.60;8.63;;;;;;;-2.74;100.00;96212.16;4357371;32;20246;-57
2024/01/13 03:33:29;;;;;;;8.27;7.50;;;;;;;-2.31;100.00;96216.28;4368934;32;20192;-58
2024/01/13 03:35:56;;;;;;;6.53;5.90;;;;;;;-2.45;100.00;96207.56;4363346;32;20189;-58
2024/01/13 03:38:25;;;;;;;6.80;6.20;;;;;;;-2.65;100.00;96205.84;4374737;32;20224;-58
2024/01/13 03:40:50;;;;;;;16.50;9.30;;;;;;;-2.47;100.00;96204.38;4366014;32;20212;-58
2024/01/13 03:43:15;;;;;;;8.67;7.83;;;;;;;-2.34;100.00;96192.47;4324358;32;20347;-58
2024/01/13 03:45:42;;;;;;;8.97;8.13;;;;;;;-2.83;100.00;96201.09;4351763;32;20208;-58
2024/01/13 03:48:07;;;;;;;6.90;6.37;;;;;;;-2.54;100.00;96197.53;4356471;32;20204;-60
2024/01/13 03:50:33;;;;;;;9.30;8.27;;;;;;;-2.48;100.00;96201.94;4358806;32;20230;-60
2024/01/13 03:52:59;;;;;;;8.23;7.53;;;;;;;-2.64;100.00;96200.44;4341192;32;20220;-60
2024/01/13 03:55:28;;;;;;;7.80;7.30;;;;;;;-2.63;100.00;96193.47;4354293;32;20196;-59
2024/01/13 03:57:54;;;;;;;6.37;5.53;;;;;;;-2.65;100.00;96192.84;4351406;32;20185;-60
2024/01/13 04:00:19;;;;;;;17.23;9.83;;;;;;;-2.22;100.00;96193.53;4349058;32;20264;-60
2024/01/13 04:02:44;;;;;;;9.57;8.73;;;;;;;-2.02;100.00;96196.22;4367002;32;20242;-60
2024/01/13 04:05:10;;;;;;;10.10;9.10;;;;;;;-2.86;100.00;96194.50;4351796;32;20254;-59
2024/01/13 04:07:35;;;;;;;7.63;6.93;;;;;;;-2.77;100.00;96183.00;4312475;32;20277;-60
2024/01/13 04:10:01;;;;;;;7.87;6.77;;;;;;;-2.34;100.00;96187.28;4356144;32;20180;-60
2024/01/13 04:12:29;;;;;;;6.17;5.67;;;;;;;-2.55;100.00;96190.75;4313702;32;20210;-60
2024/01/13 04:14:55;;;;;;;13.70;9.35;;;;;;;-2.49;100.00;96195.16;4373127;32;20189;-59
2024/01/13 04:17:21;;;;;;;17.15;7.00;;;;;;;-2.53;100.00;96193.94;4373954;32;20260;-60
2024/01/13 04:19:47;;;;;;;11.80;7.97;;;;;;;-2.97;100.00;96187.22;4347261;32;20312;-60
2024/01/13 04:22:14;;;;;;;7.85;7.18;;;;;;;-3.02;100.00;96193.97;4338468;32;20224;-59
2024/01/13 04:24:41;;;;;;;8.43;7.75;;;;;;;-3.10;100.00;96184.50;4356116;32;20238;-60
2024/01/13 04:27:06;;;;;;;12.80;11.15;;;;;;;-3.35;100.00;96183.31;4331090;32;20218;-60
2024/01/13 04:29:31;;;;;;;7.27;6.67;;;;;;;-2.98;100.00;96182.22;4319337;32;20193;-60
2024/01/13 04:31:58;;;;;;;8.40;7.80;;;;;;;-3.01;100.00;96177.41;4379442;32;20207;-64
2024/01/13 04:34:23;;;;;;;7.22;6.47;;;;;;;-2.79;100.00;96174.59;4362990;32;20204;-60
2024/01/13 04:36:50;;;;;;;5.40;4.87;;;;;;;-2.66;100.00;96163.50;4356799;32;20282;-60
2024/01/13 04:39:15;;;;;;;7.60;6.55;;;;;;;-2.60;100.00;96156.75;4330744;32;20319;-59
2024/01/13 04:41:41;;;;;;;6.40;6.00;;;;;;;-2.68;100.00;96159.47;4349378;32;20200;-59
2024/01/13 04:44:08;;;;;;;8.93;8.07;;;;;;;-2.91;100.00;96165.69;4374742;32;20192;-60
2024/01/13 04:46:34;;;;;;;6.28;5.75;;;;;;;-2.96;100.00;96162.88;4308030;32;20205;-60
2024/01/13 04:48:59;;;;;;;8.07;7.50;;;;;;;-3.28;100.00;96160.81;4360447;32;20208;-59
2024/01/13 04:51:25;;;;;;;6.23;5.03;;;;;;;-2.79;100.00;96153.03;4365620;32;20200;-60
2024/01/13 04:53:50;;;;;;;5.17;4.87;;;;;;;-3.06;100.00;96152.00;4352559;32;20208;-59
2024/01/13 04:56:17;;;;;;;8.82;8.05;;;;;;;-3.02;100.00;96144.66;4361836;32;22892;-60
2024/01/13 04:58:44;;;;;;;8.00;6.95;;;;;;;-3.27;100.00;96145.06;4371131;32;20255;-60
2024/01/13 05:01:10;;;;;;;6.35;5.80;;;;;;;-3.39;100.00;96145.75;4338846;32;20200;-60
2024/01/13 05:03:37;;;;;;;6.00;5.57;;;;;;;-3.34;100.00;96148.59;4350251;32;20249;-60
2024/01/13 05:06:03;;;;;;;6.25;5.85;;;;;;;-3.02;100.00;96142.88;4354083;32;20302;-61
2024/01/13 05:08:30;;;;;;;9.50;8.57;;;;;;;-3.04;100.00;96144.03;4364623;32;20210;-60
2024/01/13 05:10:56;;;;;;;8.50;7.70;;;;;;;-3.13;100.00;96146.78;4360108;32;20239;-60
2024/01/13 05:13:23;;;;;;;7.15;6.55;;;;;;;-3.61;100.00;96155.31;4355149;32;20211;-60
2024/01/13 05:15:50;;;;;;;7.68;6.62;;;;;;;-3.37;100.00;96144.59;4335982;32;20262;-60
2024/01/13 05:18:15;;;;;;;7.82;5.45;;;;;;;-3.20;100.00;96140.75;4339727;32;20220;-61
2024/01/13 05:20:43;;;;;;;5.40;5.10;;;;;;;-3.22;100.00;96155.69;4348646;32;20193;-60
2024/01/13 05:23:08;;;;;;;8.00;6.28;;;;;;;-3.32;100.00;96151.78;4332736;32;20215;-59
2024/01/13 05:25:34;;;;;;;6.87;4.33;;;;;;;-3.49;100.00;96162.41;4333311;32;20194;-59
2024/01/13 05:27:59;;;;;;;7.43;6.37;;;;;;;-3.40;100.00;96151.94;4335941;32;20248;-60
2024/01/13 05:30:26;;;;;;;6.13;5.63;;;;;;;-3.46;100.00;96156.84;4299501;32;20209;-60
2024/01/13 05:32:53;;;;;;;6.28;5.72;;;;;;;-3.72;100.00;96158.38;4326369;32;20270;-61
2024/01/13 05:35:20;;;;;;;6.70;6.07;;;;;;;-3.90;100.00;96156.19;4342664;32;20213;-59
2024/01/13 05:37:45;;;;;;;7.05;5.62;;;;;;;-3.48;100.00;96150.25;4337588;32;20201;-60
2024/01/13 05:40:11;;;;;;;6.60;6.00;;;;;;;-3.23;100.00;96148.09;4350102;32;20219;-60
2024/01/13 05:42:36;;;;;;;6.67;6.17;;;;;;;-3.53;100.00;96155.97;4353999;32;20192;-59
2024/01/13 05:45:02;;;;;;;11.43;9.27;;;;;;;-3.26;100.00;96151.06;4340663;32;20268;-60
2024/01/13 05:47:27;;;;;;;8.23;7.63;;;;;;;-3.30;100.00;96155.00;4351848;32;20219;-61
2024/01/13 05:49:53;;;;;;;9.47;8.73;;;;;;;-3.38;100.00;96155.12;4368199;32;20196;-60
2024/01/13 05:52:18;;;;;;;7.83;7.33;;;;;;;-3.48;100.00;96158.03;4359317;32;20247;-60
2024/01/13 05:54:45;;;;;;;5.80;5.33;;;;;;;-3.51;100.00;96161.78;4342421;32;20200;-60
2024/01/13 05:57:11;;;;;;;7.72;7.22;;;;;;;-3.30;100.00;96157.59;4345827;32;20232;-60
2024/01/13 05:59:37;;;;;;;7.15;6.53;;;;;;;-3.57;100.00;96159.16;4345811;32;20284;-60
2024/01/13 06:02:05;;;;;;;7.17;6.73;;;;;;;-3.53;100.00;96165.56;4344298;32;20205;-60
2024/01/13 06:04:31;;;;;;;7.60;6.90;;;;;;;-3.24;100.00;96151.66;4360512;32;20220;-60
2024/01/13 06:06:59;;;;;;;9.80;6.33;;;;;;;-2.97;100.00;96150.91;4331325;32;20331;-59
2024/01/13 06:09:26;;;;;;;8.65;6.85;;;;;;;-3.05;100.00;96158.81;4334203;32;20201;-59
2024/01/13 06:11:51;;;;;;;6.80;6.12;;;;;;;-3.18;100.00;96162.13;4348123;32;20272;-60
2024/01/13 06:14:17;;;;;;;8.13;7.63;;;;;;;-3.20;100.00;96158.91;4355907;32;20342;-60
2024/01/13 06:16:42;;;;;;;6.30;5.80;;;;;;;-3.16;100.00;96154.16;4353120;32;20197;-60
2024/01/13 06:19:07;;;;;;;9.50;7.77;;;;;;;-3.40;100.00;96151.94;4345667;32;20235;-59
2024/01/13 06:21:42;;;;;;;6.97;6.30;;;;;;;-3.59;100.00;96148.97;4345335;32;20244;-59
2024/01/13 06:24:12;;;;;;;7.65;7.00;;;;;;;-3.54;100.00;96151.00;4332091;32;20218;-60
2024/01/13 06:26:40;;;;;;;8.68;7.90;;;;;;;-3.30;100.00;96142.84;4343759;32;20215;-60
2024/01/13 06:29:11;;;;;;;8.00;7.18;;;;;;;-2.95;100.00;96138.53;4352821;32;20265;-60
2024/01/13 06:31:37;;;;;;;8.25;7.53;;;;;;;-3.53;100.00;96139.63;4357059;32;20242;-60
2024/01/13 06:34:03;;;;;;;9.73;7.75;;;;;;;-3.49;100.00;96144.25;4358311;32;20208;-60
2024/01/13 06:36:28;;;;;;;8.33;7.57;;;;;;;-3.20;100.00;96137.34;4357742;32;20197;-59
2024/01/13 06:38:54;;;;;;;6.53;6.03;;;;;;;-3.17;100.00;96122.22;4361468;32;20213;-60
2024/01/13 06:41:20;;;;;;;6.80;6.17;;;;;;;-2.97;100.00;96131.94;4353609;32;20228;-59
2024/01/13 06:43:45;;;;;;;8.23;7.47;;;;;;;-2.84;100.00;96122.44;4355419;32;20211;-59
2024/01/13 06:46:11;;;;;;;12.07;8.43;;;;;;;-3.02;100.00;96126.50;4346176;32;20232;-60
2024/01/13 06:48:36;;;;;;;8.23;6.47;;;;;;;-3.14;100.00;96119.25;4298490;32;20245;-60
2024/01/13 06:51:04;;;;;;;8.77;7.77;;;;;;;-3.30;100.00;96129.87;4300139;32;20267;-60
2024/01/13 06:53:29;;;;;;;7.87;7.15;;;;;;;-3.46;100.00;96125.75;4338147;32;20219;-59
2024/01/13 06:55:56;;;;;;;9.93;9.00;;;;;;;-3.29;100.00;96128.06;4341710;32;20205;-60
2024/01/13 06:58:23;;;;;;;5.93;5.50;;;;;;;-3.44;100.00;96128.16;4362831;32;20192;-60
2024/01/13 07:00:49;;;;;;;8.93;8.05;;;;;;;-3.23;100.00;96132.53;4353328;32;20188;-60
2024/01/13 07:03:15;;;;;;;8.57;7.93;;;;;;;-3.37;100.00;96143.78;4341240;32;20213;-58
2024/01/13 07:05:42;;;;;;;7.17;5.90;;;;;;;-3.76;100.00;96152.78;4330557;32;20246;-58
2024/01/13 07:08:08;;;;;;;11.10;10.13;;;;;;;-3.65;100.00;96146.28;4323529;32;20201;-57
2024/01/13 07:10:35;;;;;;;7.10;6.40;;;;;;;-3.72;100.00;96146.22;4358765;32;20201;-58
2024/01/13 07:13:01;;;;;;;7.57;6.53;;;;;;;-3.61;100.00;96137.16;4373216;32;20256;-58
2024/01/13 07:15:27;;;;;;;13.00;10.23;;;;;;;-3.84;100.00;96132.16;4357751;32;20254;-58
2024/01/13 07:17:54;;;;;;;8.47;7.73;;;;;;;-3.69;100.00;96142.47;4356075;32;20197;-57
2024/01/13 07:20:19;;;;;;;10.85;8.20;;;;;;;-3.54;100.00;96132.88;4374246;32;20306;-58
2024/01/13 07:22:44;;;;;;;11.77;8.03;;;;;;;-3.76;100.00;96126.88;4352466;32;20196;-58
2024/01/13 07:25:10;;;;;;;4.80;4.40;;;;;;;-3.82;100.00;96120.63;4356673;32;20259;-58
2024/01/13 07:27:37;;;;;;;9.50;8.60;;;;;;;-3.66;100.00;96106.63;4343741;32;20196;-58
2024/01/13 07:30:04;;;;;;;9.55;8.65;;;;;;;-3.69;100.00;96104.38;4327063;32;20298;-58
2024/01/13 07:32:30;;;;;;;9.48;8.60;;;;;;;-3.84;100.00;96108.81;4355849;32;20238;-58
2024/01/13 07:34:55;;;;;;;9.17;8.47;;;;;;;-3.59;100.00;96094.53;4350080;32;20197;-58
2024/01/13 07:37:23;;;;;;;10.60;6.93;;;;;;;-3.27;100.00;96098.37;4348177;32;20220;-59
2024/01/13 07:39:50;;;;;;;8.85;8.00;;;;;;;-3.41;100.00;96107.03;4335382;32;20282;-57
2024/01/13 07:42:15;;;;;;;9.70;8.82;;;;;;;-3.58;100.00;96105.69;4343402;32;20200;-58
2024/01/13 07:44:44;;;;;;;7.28;6.87;;;;;;;-3.65;100.00;96102.22;4347367;32;20238;-58
2024/01/13 07:47:10;;;;;;;7.00;6.57;;;;;;;-3.60;100.00;96100.69;4345383;32;20192;-58
2024/01/13 07:49:36;;;;;;;9.30;8.40;;;;;;;-3.67;100.00;96102.41;4334293;32;20193;-57
2024/01/13 07:52:02;;;;;;;10.88;8.20;;;;;;;-3.39;100.00;96086.91;4356320;32;20265;-58
2024/01/13 07:54:29;;;;;;;7.53;6.90;;;;;;;-3.32;100.00;96094.72;4365308;32;20208;-57
2024/01/13 07:56:58;;;;;;;8.38;7.65;;;;;;;-2.96;100.00;96094.62;4349912;32;20244;-60
2024/01/13 07:59:24;;;;;;;6.15;5.53;;;;;;;-2.78;100.00;96087.94;4339697;32;20199;-60
2024/01/13 08:01:50;;;;;;;6.35;5.95;;;;;;;-2.89;100.00;96085.06;4338227;32;20387;-60
2024/01/13 08:04:15;;;;;;;6.30;5.80;;;;;;;-2.51;100.00;96077.72;4328055;32;20256;-59
2024/01/13 08:06:41;;;;;;;6.73;6.17;;;;;;;-2.22;100.00;96063.62;4343425;32;20331;-60
2024/01/13 08:09:07;;;;;;;8.27;6.90;;;;;;;-2.47;100.00;96081.50;4346411;32;20212;-60
2024/01/13 08:11:33;;;;;;;6.07;5.67;;;;;;;-2.47;100.00;96086.69;4360819;32;20189;-60
2024/01/13 08:13:59;;;;;;;5.93;5.50;;;;;;;-2.15;100.00;96087.84;4353657;32;20211;-64
2024/01/13 08:16:25;;;;;;;6.85;5.55;;;;;;;-2.77;100.00;96094.75;4365313;32;20224;-60
2024/01/13 08:18:52;;;;;;;6.83;6.23;;;;;;;-2.82;100.00;96086.72;4347529;32;20219;-60
2024/01/13 08:21:18;;;;;;;7.12;6.55;;;;;;;-2.54;100.00;96091.06;4355566;32;20237;-60
2024/01/13 08:23:44;;;;;;;7.25;6.80;;;;;;;-2.54;100.00;96085.88;4337049;32;20173;-60
2024/01/13 08:26:09;;;;;;;6.78;6.20;;;;;;;-2.10;100.00;96080.25;4361050;32;20248;-60
2024/01/13 08:28:36;;;;;;;7.63;6.40;;;;;;;-1.93;100.00;96081.50;4336439;32;20245;-60
2024/01/13 08:31:04;;;;;;;7.03;4.37;;;;;;;-1.74;100.00;96080.75;4341274;32;20221;-60
2024/01/13 08:33:30;;;;;;;7.03;6.40;;;;;;;-2.25;100.00;96092.56;4320791;32;20262;-59
2024/01/13 08:35:57;;;;;;;6.90;6.25;;;;;;;-2.24;100.00;96089.00;4353544;32;20207;-60
2024/01/13 08:38:23;;;;;;;5.65;4.95;;;;;;;-2.59;100.00;96096.84;4309334;32;20284;-60
2024/01/13 08:40:48;;;;;;;4.60;4.20;;;;;;;-2.38;100.00;96088.16;4354385;32;20257;-59
2024/01/13 08:43:15;;;;;;;8.03;7.07;;;;;;;-2.24;100.00;96084.59;4340454;32;20223;-60
2024/01/13 08:45:40;;;;;;;6.97;6.07;;;;;;;-2.41;100.00;96088.53;4323627;32;20197;-60
2024/01/13 08:48:07;;;;;;;11.13;7.97;;;;;;;-2.31;100.00;96081.19;4350763;32;20210;-60
2024/01/13 08:50:34;;;;;;;6.35;5.85;;;;;;;-1.95;100.00;96080.91;4345733;32;20219;-60
2024/01/13 08:53:00;;;;;;;9.35;6.55;;;;;;;-1.94;100.00;96073.91;4356267;32;20193;-64
2024/01/13 08:55:26;;;;;;;7.97;7.05;;;;;;;-2.35;100.00;96072.19;4329027;32;20212;-60
2024/01/13 08:57:51;;;;;;;6.50;5.90;;;;;;;-2.88;100.00;96071.91;4336720;32;20222;-61
2024/01/13 09:00:17;;;;;;;5.53;5.23;;;;;;;-2.71;100.00;96076.81;4323258;32;20254;-60
2024/01/13 09:02:44;;;;;;;4.40;4.00;;;;;;;-3.02;100.00;96085.00;4347191;32;20185;-60
2024/01/13 09:05:10;;;;;;;5.70;5.30;;;;;;;-2.83;100.00;96074.72;4359402;32;20204;-60
2024/01/13 09:07:38;;;;;;;6.22;5.80;;;;;;;-3.06;100.00;96066.41;4333181;32;20231;-60
2024/01/13 09:10:04;;;;;;;4.78;4.43;;;;;;;-2.87;100.00;96068.31;4352752;32;20215;-59
2024/01/13 09:12:31;;;;;;;4.90;4.45;;;;;;;-2.90;100.00;96063.50;4347135;32;20231;-60
2024/01/13 09:14:57;;;;;;;3.53;3.33;;;;;;;-2.82;100.00;96071.13;4363749;32;20193;-59
2024/01/13 09:17:22;;;;;;;5.47;5.03;;;;;;;-2.74;100.00;96067.59;4342806;32;20198;-60
2024/01/13 09:19:52;;;;;;;3.23;3.03;;;;;;;-2.92;100.00;96075.87;4346038;32;21899;-60
2024/01/13 09:22:18;;;;;;;7.53;5.87;;;;;;;-2.94;100.00;96071.88;4342312;32;20259;-59
2024/01/13 09:24:44;;;;;;;3.83;3.57;;;;;;;-2.95;100.00;96076.25;4333277;32;20193;-59
2024/01/13 09:27:09;;;;;;;4.47;3.93;;;;;;;-2.98;100.00;96075.84;4364304;32;20227;-61
2024/01/13 09:29:35;;;;;;;6.10;5.70;;;;;;;-2.83;100.00;96066.94;4364322;32;20218;-60
2024/01/13 09:32:04;;;;;;;5.13;4.73;;;;;;;-2.58;100.00;96058.69;4361218;32;20196;-60
2024/01/13 09:34:30;;;;;;;4.00;3.80;;;;;;;-2.59;100.00;96063.06;4347771;32;20193;-60
2024/01/13 09:36:55;;;;;;;4.10;3.90;;;;;;;-2.93;100.00;96066.50;4340118;32;20197;-58
2024/01/13 09:39:22;;;;;;;4.63;4.33;;;;;;;-3.12;100.00;96059.41;4340090;32;20198;-58
2024/01/13 09:41:48;;;;;;;4.40;4.10;;;;;;;-3.40;100.00;96046.41;4359516;32;20239;-58
2024/01/13 09:44:28;;;;;;;6.03;3.97;;;;;;;-3.14;100.00;96048.41;4332894;32;20197;-58
2024/01/13 09:46:55;;;;;;;5.80;5.20;;;;;;;-3.10;100.00;96052.19;4321571;32;20216;-58
2024/01/13 09:49:24;;;;;;;9.95;5.20;;;;;;;-2.62;100.00;96050.47;4332247;32;20193;-58
2024/01/13 09:51:55;;;;;;;6.32;5.85;;;;;;;-2.69;100.00;96046.22;4353143;32;20188;-59
2024/01/13 09:54:26;;;;;;;10.25;7.40;;;;;;;-2.95;100.00;96037.34;4345704;32;20243;-58
2024/01/13 09:56:55;;;;;;;6.40;5.93;;;;;;;-2.54;100.00;96020.97;4349965;32;20239;-58
2024/01/13 09:59:28;;;;;;;4.25;3.95;;;;;;;-2.31;100.00;96020.63;4352994;32;20208;-58
2024/01/13 10:01:54;;;;;;;5.25;4.95;;;;;;;-2.35;100.00;96012.44;4353497;32;20196;-58
2024/01/13 10:04:22;;;;;;;8.05;4.68;;;;;;;-2.85;100.00;96019.62;4340367;32;20310;-58
2024/01/13 10:06:48;;;;;;;5.45;3.87;;;;;;;-2.36;100.00;96023.00;4297828;32;20193;-58
2024/01/13 10:09:17;;;;;;;5.37;4.90;;;;;;;-2.44;100.00;96031.78;4291425;32;20374;-58
2024/01/13 10:11:43;;;;;;;5.45;4.40;;;;;;;-2.45;100.00;96036.16;4345716;32;20314;-59
2024/01/13 10:14:12;;;;;;;5.33;4.83;;;;;;;-2.61;100.00;96035.69;4314846;32;20206;-58
2024/01/13 10:16:40;;;;;;;5.78;5.47;;;;;;;-2.68;100.00;96027.06;4334560;32;20285;-58
2024/01/13 10:19:08;;;;;;;5.12;4.70;;;;;;;-2.65;100.00;96008.50;4336350;32;20256;-58
2024/01/13 10:21:36;;;;;;;6.18;5.72;;;;;;;-2.59;100.00;96012.94;4353978;32;20234;-58
2024/01/13 10:24:06;;;;;;;6.62;6.07;;;;;;;-2.54;100.00;96026.16;4341037;32;20328;-58
2024/01/13 10:26:35;;;;;;;6.32;5.82;;;;;;;-2.59;100.00;96012.94;4354411;32;20264;-58
2024/01/13 10:29:00;;;;;;;6.80;6.20;;;;;;;-2.91;100.00;96019.59;4326882;32;20197;-59
2024/01/13 10:31:26;;;;;;;6.63;5.53;;;;;;;-2.86;100.00;96010.22;4322678;32;20216;-58
2024/01/13 10:33:52;;;;;;;7.47;6.93;;;;;;;-3.03;100.00;96001.16;4316877;32;20197;-58
2024/01/13 10:36:26;;;;;;;4.45;4.15;;;;;;;-2.74;100.00;95986.31;4353034;32;20197;-58
2024/01/13 10:38:52;;;;;;;6.12;5.72;;;;;;;-2.54;100.00;95987.19;4342997;32;20227;-57
2024/01/13 10:41:26;;;;;;;4.77;4.47;;;;;;;-2.45;100.00;95970.44;4335697;32;20197;-58
2024/01/13 10:43:55;;;;;;;6.40;5.05;;;;;;;-2.68;100.00;95978.53;4352302;32;20217;-59
2024/01/13 10:46:24;;;;;;;6.82;3.97;;;;;;;-2.64;100.00;95976.37;4344521;32;20196;-58
2024/01/13 10:48:51;;;;;;;9.57;7.25;;;;;;;-2.77;100.00;95958.97;4321030;32;20289;-58
2024/01/13 10:51:48;;;;;;;6.03;5.53;;;;;;;-2.53;100.00;95945.47;4321049;32;20205;-58
2024/01/13 10:54:29;;;;;;;6.43;5.18;;;;;;;-2.45;100.00;95937.47;4333875;32;20197;-58
2024/01/13 10:56:57;;;;;;;5.70;5.28;;;;;;;-2.43;100.00;95938.06;4328854;32;20227;-58
2024/01/13 10:59:32;;;;;;;4.28;3.97;;;;;;;-2.54;100.00;95953.44;4302430;32;20220;-58
2024/01/13 11:02:11;;;;;;;5.72;5.35;;;;;;;-2.72;100.00;95956.59;4350886;32;20215;-58
2024/01/13 11:04:40;;;;;;;6.10;5.20;;;;;;;-3.03;100.00;95954.44;4329959;32;20292;-58
2024/01/13 11:07:05;;;;;;;5.78;5.37;;;;;;;-2.93;100.00;95943.72;4339934;32;20249;-58
2024/01/13 11:09:39;;;;;;;6.53;5.97;;;;;;;-2.91;100.00;95946.94;4351497;32;20298;-58
2024/01/13 11:12:17;;;;;;;4.93;4.45;;;;;;;-2.79;100.00;95951.38;4344773;32;20220;-59
2024/01/13 11:15:15;;;;;;;5.75;5.32;;;;;;;-2.86;100.00;95954.91;4365241;32;20197;-58
2024/01/13 11:17:46;;;;;;;6.32;5.72;;;;;;;-3.07;100.00;95947.25;4344146;32;20256;-58
2024/01/13 11:20:17;;;;;;;5.60;5.05;;;;;;;-2.86;100.00;95949.72;4306653;32;20327;-58
2024/01/13 11:22:58;;;;;;;8.43;7.60;;;;;;;-2.63;100.00;95944.22;4355705;32;20201;-58